createdAt,value
2022-08-28T00:00:25.546Z,100464.78
2022-08-28T00:02:53.201Z,100462.00
2022-08-28T00:05:22.853Z,100461.63
2022-08-28T00:07:54.652Z,100460.25
2022-08-28T00:10:24.067Z,100461.00
2022-08-28T00:12:52.678Z,100462.69
2022-08-28T00:15:24.016Z,100463.28
2022-08-28T00:17:50.823Z,100471.88
2022-08-28T00:20:19.876Z,100470.16
2022-08-28T00:22:46.746Z,100469.09
2022-08-28T00:25:15.432Z,100465.47
2022-08-28T00:27:55.020Z,100461.63
2022-08-28T00:30:28.218Z,100461.63
2022-08-28T00:32:59.415Z,100471.88
2022-08-28T00:35:27.042Z,100471.88
2022-08-28T00:37:54.872Z,100468.47
2022-08-28T00:40:28.777Z,100463.78
2022-08-28T00:43:00.365Z,100467.16
2022-08-28T00:45:28.014Z,100471.94
2022-08-28T00:47:54.451Z,100471.34
2022-08-28T00:50:24.601Z,100474.72
2022-08-28T00:52:57.497Z,100478.56
2022-08-28T00:55:26.854Z,100478.31
2022-08-28T00:57:56.491Z,100472.53
2022-08-28T01:00:30.877Z,100466.13
2022-08-28T01:02:58.184Z,100475.81
2022-08-28T01:05:26.307Z,100473.38
2022-08-28T01:07:54.059Z,100468.06
2022-08-28T01:10:23.862Z,100463.88
2022-08-28T01:12:51.350Z,100476.91
2022-08-28T01:15:24.301Z,100473.53
2022-08-28T01:17:53.707Z,100471.88
2022-08-28T01:20:24.810Z,100471.25
2022-08-28T01:23:00.905Z,100468.47
2022-08-28T01:25:31.834Z,100470.44
2022-08-28T01:27:58.921Z,100464.31
2022-08-28T01:30:25.543Z,100462.38
2022-08-28T01:32:55.642Z,100470.69
2022-08-28T01:35:28.794Z,100467.91
2022-08-28T01:37:56.169Z,100467.66
2022-08-28T01:40:39.217Z,100467.59
2022-08-28T01:43:11.824Z,100468.66
2022-08-28T01:45:42.214Z,100478.06
2022-08-28T01:48:08.749Z,100472.78
2022-08-28T01:50:35.470Z,100479.41
2022-08-28T01:53:12.332Z,100479.41
2022-08-28T01:55:39.301Z,100474.16
2022-08-28T01:58:07.150Z,100478.84
2022-08-28T02:00:38.518Z,100482.94
2022-08-28T02:03:07.620Z,100476.56
2022-08-28T02:05:35.819Z,100490.41
2022-08-28T02:08:07.145Z,100487.63
2022-08-28T02:10:35.729Z,100485.97
2022-08-28T02:13:03.981Z,100494.81
2022-08-28T02:15:37.405Z,100486.50
2022-08-28T02:18:08.442Z,100485.66
2022-08-28T02:20:35.193Z,100487.81
2022-08-28T02:23:01.799Z,100488.09
2022-08-28T02:25:30.820Z,100493.88
2022-08-28T02:27:57.817Z,100483.28
2022-08-28T02:30:24.535Z,100495.69
2022-08-28T02:32:53.615Z,100487.03
2022-08-28T02:35:23.191Z,100485.28
2022-08-28T02:37:50.480Z,100491.91
2022-08-28T02:40:19.592Z,100491.91
2022-08-28T02:42:49.211Z,100489.91
2022-08-28T02:45:17.443Z,100489.91
2022-08-28T02:47:45.648Z,100486.31
2022-08-28T02:50:15.664Z,100485.97
2022-08-28T02:52:42.600Z,100488.13
2022-08-28T02:55:10.831Z,100484.28
2022-08-28T02:57:37.424Z,100485.97
2022-08-28T03:00:10.078Z,100481.97
2022-08-28T03:02:36.775Z,100484.16
2022-08-28T03:05:04.060Z,100481.88
2022-08-28T03:07:30.873Z,100482.97
2022-08-28T03:09:57.418Z,100474.41
2022-08-28T03:12:24.356Z,100475.00
2022-08-28T03:14:54.605Z,100473.91
2022-08-28T03:17:22.091Z,100471.03
2022-08-28T03:19:50.035Z,100478.25
2022-08-28T03:22:17.493Z,100479.00
2022-08-28T03:24:44.898Z,100480.69
2022-08-28T03:27:11.687Z,100483.97
2022-08-28T03:29:38.232Z,100477.34
2022-08-28T03:32:07.248Z,100477.81
2022-08-28T03:34:33.771Z,100478.94
2022-08-28T03:37:01.176Z,100483.88
2022-08-28T03:39:30.653Z,100483.00
2022-08-28T03:41:57.150Z,100491.59
2022-08-28T03:44:23.653Z,100479.06
2022-08-28T03:46:54.873Z,100481.03
2022-08-28T03:49:21.932Z,100490.63
2022-08-28T03:51:49.603Z,100494.25
2022-08-28T03:54:18.681Z,100491.47
2022-08-28T03:56:45.094Z,100500.13
2022-08-28T03:59:11.535Z,100493.16
2022-08-28T04:01:38.309Z,100490.91
2022-08-28T04:04:09.603Z,100494.25
2022-08-28T04:06:38.614Z,100492.81
2022-08-28T04:09:05.797Z,100491.41
2022-08-28T04:11:37.448Z,100496.94
2022-08-28T04:14:07.798Z,100487.78
2022-08-28T04:16:36.719Z,100496.94
2022-08-28T04:19:03.608Z,100498.03
2022-08-28T04:21:30.406Z,100498.53
2022-08-28T04:23:56.960Z,100496.84
2022-08-28T04:26:26.173Z,100502.38
2022-08-28T04:28:53.841Z,100505.38
2022-08-28T04:31:31.923Z,100505.03
2022-08-28T04:34:06.211Z,100501.75
2022-08-28T04:36:35.769Z,100504.28
2022-08-28T04:39:03.114Z,100503.44
2022-08-28T04:41:30.480Z,100503.94
2022-08-28T04:43:57.785Z,100496.84
2022-08-28T04:46:25.193Z,100497.81
2022-08-28T04:48:57.460Z,100505.28
2022-08-28T04:51:23.941Z,100507.78
2022-08-28T04:53:52.773Z,100505.53
2022-08-28T04:56:21.664Z,100504.44
2022-08-28T04:58:48.162Z,100503.59
2022-08-28T05:01:18.851Z,100515.53
2022-08-28T05:03:53.989Z,100513.81
2022-08-28T05:06:21.763Z,100513.81
2022-08-28T05:08:48.334Z,100514.91
2022-08-28T05:11:30.738Z,100528.16
2022-08-28T05:14:05.593Z,100518.16
2022-08-28T05:16:34.954Z,100524.91
2022-08-28T05:19:02.019Z,100520.44
2022-08-28T05:21:28.510Z,100526.25
2022-08-28T05:23:57.459Z,100528.41
2022-08-28T05:26:27.096Z,100529.25
2022-08-28T05:28:56.287Z,100522.00
2022-08-28T05:31:24.103Z,100540.06
2022-08-28T05:33:52.677Z,100539.81
2022-08-28T05:36:22.043Z,100535.38
2022-08-28T05:38:49.393Z,100549.81
2022-08-28T05:41:25.017Z,100541.00
2022-08-28T05:43:54.660Z,100545.63
2022-08-28T05:46:22.299Z,100544.03
2022-08-28T05:48:49.389Z,100549.44
2022-08-28T05:51:20.097Z,100554.47
2022-08-28T05:53:49.839Z,100554.13
2022-08-28T05:56:19.728Z,100561.06
2022-08-28T05:58:46.285Z,100557.84
2022-08-28T06:01:14.649Z,100560.13
2022-08-28T06:03:43.606Z,100562.88
2022-08-28T06:06:12.548Z,100561.53
2022-08-28T06:08:58.049Z,100565.66
2022-08-28T06:11:30.409Z,100568.16
2022-08-28T06:14:03.317Z,100565.16
2022-08-28T06:16:32.515Z,100567.41
2022-08-28T06:19:01.681Z,100565.25
2022-08-28T06:21:29.033Z,100559.31
2022-08-28T06:23:56.220Z,100569.31
2022-08-28T06:26:23.734Z,100566.88
2022-08-28T06:28:53.070Z,100563.25
2022-08-28T06:31:23.729Z,100569.06
2022-08-28T06:33:51.957Z,100564.00
2022-08-28T06:36:18.361Z,100567.38
2022-08-28T06:38:46.712Z,100576.25
2022-08-28T06:41:15.526Z,100575.78
2022-08-28T06:43:44.724Z,100579.97
2022-08-28T06:46:11.214Z,100575.84
2022-08-28T06:48:37.800Z,100588.25
2022-08-28T06:51:14.575Z,100588.56
2022-08-28T06:53:45.708Z,100599.50
2022-08-28T06:56:26.404Z,100598.25
2022-08-28T06:58:56.022Z,100596.00
2022-08-28T07:01:34.798Z,100596.84
2022-08-28T07:04:06.424Z,100590.94
2022-08-28T07:06:35.559Z,100599.50
2022-08-28T07:09:05.219Z,100594.81
2022-08-28T07:11:33.791Z,100605.72
2022-08-28T07:14:01.635Z,100611.94
2022-08-28T07:16:32.836Z,100608.59
2022-08-28T07:18:59.809Z,100612.72
2022-08-28T07:21:26.874Z,100618.59
2022-08-28T07:23:54.924Z,100618.69
2022-08-28T07:26:23.757Z,100615.31
2022-08-28T07:28:51.916Z,100612.72
2022-08-28T07:31:22.502Z,100621.16
2022-08-28T07:33:50.859Z,100615.44
2022-08-28T07:36:29.452Z,100620.06
2022-08-28T07:38:59.676Z,100629.09
2022-08-28T07:41:35.454Z,100627.56
2022-08-28T07:44:20.893Z,100632.81
2022-08-28T07:46:59.173Z,100624.53
2022-08-28T07:49:26.462Z,100647.66
2022-08-28T07:51:54.075Z,100629.72
2022-08-28T07:54:24.195Z,100638.38
2022-08-28T07:56:55.442Z,100641.13
2022-08-28T07:59:22.272Z,100646.88
2022-08-28T08:01:51.455Z,100659.00
2022-08-28T08:04:19.993Z,100654.75
2022-08-28T08:06:46.902Z,100645.09
2022-08-28T08:09:15.788Z,100653.53
2022-08-28T08:11:42.636Z,100658.25
2022-08-28T08:14:11.882Z,100665.50
2022-08-28T08:16:43.450Z,100662.19
2022-08-28T08:19:10.469Z,100664.44
2022-08-28T08:21:40.018Z,100656.75
2022-08-28T08:24:07.366Z,100668.47
2022-08-28T08:26:34.140Z,100666.22
2022-08-28T08:29:00.738Z,100668.66
2022-08-28T08:31:35.220Z,100672.72
2022-08-28T08:34:05.664Z,100679.81
2022-08-28T08:36:34.429Z,100662.13
2022-08-28T08:39:06.559Z,100675.66
2022-08-28T08:41:48.219Z,100675.38
2022-08-28T08:44:33.610Z,100684.16
2022-08-28T08:47:41.362Z,100670.75
2022-08-28T08:50:17.349Z,100676.88
2022-08-28T08:53:04.918Z,100693.22
2022-08-28T08:55:35.660Z,100671.25
2022-08-28T08:58:07.155Z,100670.66
2022-08-28T09:00:37.415Z,100675.13
2022-08-28T09:03:15.080Z,100668.84
2022-08-28T09:06:12.593Z,100676.91
2022-08-28T09:08:47.466Z,100669.19
2022-08-28T09:11:58.413Z,100681.88
2022-08-28T09:14:45.420Z,100690.41
2022-08-28T09:17:17.850Z,100707.72
2022-08-28T09:19:44.293Z,100693.53
2022-08-28T09:22:11.483Z,100684.31
2022-08-28T09:24:41.267Z,100700.63
2022-08-28T09:27:27.423Z,100703.25
2022-08-28T09:29:58.796Z,100701.25
2022-08-28T09:32:41.510Z,100692.00
2022-08-28T09:35:16.290Z,100689.34
2022-08-28T09:37:44.053Z,100686.63
2022-08-28T09:40:13.780Z,100717.84
2022-08-28T09:42:59.240Z,100701.25
2022-08-28T09:45:28.795Z,100703.38
2022-08-28T09:48:00.612Z,100691.47
2022-08-28T09:50:43.429Z,100699.84
2022-08-28T09:53:09.820Z,100698.22
2022-08-28T09:55:42.948Z,100694.53
2022-08-28T09:58:09.867Z,100712.38
2022-08-28T10:00:41.470Z,100696.97
2022-08-28T10:03:09.390Z,100700.13
2022-08-28T10:05:50.136Z,100708.97
2022-08-28T10:08:31.253Z,100731.34
2022-08-28T10:11:04.244Z,100724.78
2022-08-28T10:13:41.941Z,100716.97
2022-08-28T10:16:44.726Z,100731.25
2022-08-28T10:19:39.189Z,100761.91
2022-08-28T10:22:33.455Z,100730.13
2022-08-28T10:25:20.769Z,100725.06
2022-08-28T10:28:12.387Z,100730.13
2022-08-28T10:30:52.944Z,100728.69
2022-08-28T10:33:45.810Z,100718.38
2022-08-28T10:36:34.305Z,100727.59
2022-08-28T10:39:28.023Z,100721.75
2022-08-28T10:41:58.810Z,100717.25
2022-08-28T10:44:49.836Z,100711.41
2022-08-28T10:47:22.230Z,100713.66
2022-08-28T10:49:52.610Z,100734.03
2022-08-28T10:52:27.474Z,100723.97
2022-08-28T10:55:00.193Z,100723.97
2022-08-28T10:57:49.167Z,100723.44
2022-08-28T11:00:20.043Z,100733.50
2022-08-28T11:03:22.209Z,100729.03
2022-08-28T11:06:03.374Z,100736.59
2022-08-28T11:08:29.741Z,100745.53
2022-08-28T11:10:58.970Z,100751.09
2022-08-28T11:13:47.158Z,100725.13
2022-08-28T11:16:37.415Z,100723.72
2022-08-28T11:19:40.858Z,100736.84
2022-08-28T11:22:19.113Z,100740.50
2022-08-28T11:24:55.149Z,100747.22
2022-08-28T11:27:23.468Z,100745.78
2022-08-28T11:30:08.939Z,100741.63
2022-08-28T11:32:37.554Z,100751.94
2022-08-28T11:35:10.638Z,100755.56
2022-08-28T11:37:46.164Z,100749.41
2022-08-28T11:40:28.153Z,100728.59
2022-08-28T11:43:14.202Z,100747.59
2022-08-28T11:45:42.979Z,100784.00
2022-08-28T11:48:25.593Z,100776.34
2022-08-28T11:51:09.696Z,100768.38
2022-08-28T11:53:49.294Z,100777.53
2022-08-28T11:56:53.491Z,100761.81
2022-08-28T11:59:43.466Z,100757.31
2022-08-28T12:02:46.497Z,100784.16
2022-08-28T12:05:15.956Z,100757.03
2022-08-28T12:07:43.732Z,100771.44
2022-08-28T12:10:22.413Z,100760.03
2022-08-28T12:12:56.222Z,100743.78
2022-08-28T12:15:31.210Z,100765.88
2022-08-28T12:18:15.382Z,100767.00
2022-08-28T12:20:51.060Z,100770.66
2022-08-28T12:23:26.037Z,100741.03
2022-08-28T12:26:03.834Z,100731.78
2022-08-28T12:28:33.642Z,100741.78
2022-08-28T12:31:08.586Z,100769.66
2022-08-28T12:33:49.674Z,100756.19
2022-08-28T12:36:18.514Z,100744.84
2022-08-28T12:38:53.654Z,100765.56
2022-08-28T12:41:25.037Z,100789.69
2022-08-28T12:43:56.602Z,100797.06
2022-08-28T12:46:36.252Z,100804.34
2022-08-28T12:49:05.879Z,100796.16
2022-08-28T12:51:35.652Z,100799.69
2022-08-28T12:54:05.205Z,100798.84
2022-08-28T12:56:37.056Z,100802.22
2022-08-28T12:59:23.148Z,100768.38
2022-08-28T13:01:54.750Z,100778.88
2022-08-28T13:04:35.744Z,100786.75
2022-08-28T13:07:11.340Z,100802.53
2022-08-28T13:09:43.054Z,100789.84
2022-08-28T13:12:19.117Z,100773.41
2022-08-28T13:14:48.171Z,100737.31
2022-08-28T13:17:35.639Z,100721.25
2022-08-28T13:20:06.713Z,100768.13
2022-08-28T13:22:40.334Z,100771.31
2022-08-28T13:25:10.383Z,100753.31
2022-08-28T13:27:42.160Z,100766.59
2022-08-28T13:30:14.442Z,100755.38
2022-08-28T13:32:40.915Z,100730.69
2022-08-28T13:35:25.500Z,100726.22
2022-08-28T13:37:58.963Z,100736.44
2022-08-28T13:40:56.319Z,100749.88
2022-08-28T13:43:16.220Z,100731.06
2022-08-28T13:45:45.380Z,100756.03
2022-08-28T13:48:14.226Z,100766.69
2022-08-28T13:50:46.441Z,100763.75
2022-08-28T13:53:14.268Z,100769.50
2022-08-28T13:55:43.803Z,100749.34
2022-08-28T13:58:10.652Z,100752.53
2022-08-28T14:00:41.699Z,100751.47
2022-08-28T14:03:26.568Z,100745.59
2022-08-28T14:05:54.270Z,100734.47
2022-08-28T14:08:21.882Z,100728.91
2022-08-28T14:10:52.019Z,100726.16
2022-08-28T14:13:19.898Z,100727.28
2022-08-28T14:15:47.421Z,100711.38
2022-08-28T14:18:13.995Z,100712.22
2022-08-28T14:20:40.797Z,100706.06
2022-08-28T14:23:09.211Z,100711.97
2022-08-28T14:25:42.201Z,100698.81
2022-08-28T14:28:09.033Z,100695.19
2022-08-28T14:30:42.362Z,100677.34
2022-08-28T14:33:09.214Z,100676.22
2022-08-28T14:35:41.068Z,100673.69
2022-08-28T14:38:08.823Z,100688.78
2022-08-28T14:40:40.520Z,100686.53
2022-08-28T14:43:09.980Z,100696.56
2022-08-28T14:45:48.534Z,100663.28
2022-08-28T14:48:17.294Z,100688.13
2022-08-28T14:50:45.986Z,100690.13
2022-08-28T14:53:13.918Z,100685.31
2022-08-28T14:55:46.269Z,100693.38
2022-08-28T14:58:13.270Z,100683.25
2022-08-28T15:00:46.564Z,100681.25
2022-08-28T15:03:13.818Z,100706.75
2022-08-28T15:05:41.600Z,100712.06
2022-08-28T15:08:10.156Z,100728.03
2022-08-28T15:10:42.194Z,100725.53
2022-08-28T15:13:10.371Z,100727.75
2022-08-28T15:15:42.212Z,100728.38
2022-08-28T15:18:10.236Z,100707.75
2022-08-28T15:20:41.814Z,100723.63
2022-08-28T15:23:13.559Z,100708.28
2022-08-28T15:25:40.720Z,100714.44
2022-08-28T15:28:07.422Z,100702.97
2022-08-28T15:30:34.208Z,100707.75
2022-08-28T15:33:00.802Z,100701.56
2022-08-28T15:35:27.312Z,100706.91
2022-08-28T15:37:53.879Z,100692.91
2022-08-28T15:40:39.896Z,100702.41
2022-08-28T15:43:06.599Z,100693.50
2022-08-28T15:45:41.949Z,100706.88
2022-08-28T15:48:10.744Z,100727.88
2022-08-28T15:50:37.943Z,100718.34
2022-08-28T15:53:06.117Z,100723.13
2022-08-28T15:55:33.960Z,100719.47
2022-08-28T15:58:03.218Z,100710.00
2022-08-28T16:00:33.589Z,100711.09
2022-08-28T16:03:01.043Z,100718.34
2022-08-28T16:05:40.805Z,100724.50
2022-08-28T16:08:07.891Z,100720.34
2022-08-28T16:10:34.419Z,100732.03
2022-08-28T16:13:06.491Z,100725.06
2022-08-28T16:15:33.822Z,100728.69
2022-08-28T16:18:00.224Z,100741.56
2022-08-28T16:20:26.770Z,100733.44
2022-08-28T16:22:53.258Z,100743.53
2022-08-28T16:25:19.791Z,100737.38
2022-08-28T16:27:46.269Z,100733.22
2022-08-28T16:30:15.868Z,100736.00
2022-08-28T16:32:42.645Z,100735.19
2022-08-28T16:35:14.866Z,100734.59
2022-08-28T16:37:42.176Z,100728.75
2022-08-28T16:40:09.877Z,100736.59
2022-08-28T16:42:36.578Z,100726.25
2022-08-28T16:45:04.631Z,100716.75
2022-08-28T16:47:33.124Z,100720.66
2022-08-28T16:50:08.396Z,100732.09
2022-08-28T16:52:36.197Z,100722.06
2022-08-28T16:55:04.475Z,100723.72
2022-08-28T16:57:31.251Z,100714.78
2022-08-28T16:59:57.975Z,100708.38
2022-08-28T17:02:29.950Z,100713.69
2022-08-28T17:05:00.483Z,100717.59
2022-08-28T17:07:27.317Z,100721.22
2022-08-28T17:09:53.735Z,100722.34
2022-08-28T17:12:20.625Z,100716.75
2022-08-28T17:14:47.113Z,100708.63
2022-08-28T17:17:15.787Z,100709.47
2022-08-28T17:19:42.325Z,100702.75
2022-08-28T17:22:27.554Z,100687.66
2022-08-28T17:24:54.350Z,100698.81
2022-08-28T17:27:22.648Z,100707.22
2022-08-28T17:29:50.392Z,100703.84
2022-08-28T17:32:16.844Z,100706.94
2022-08-28T17:34:43.352Z,100686.84
2022-08-28T17:37:10.962Z,100696.59
2022-08-28T17:39:38.085Z,100683.16
2022-08-28T17:42:04.611Z,100685.16
2022-08-28T17:44:31.062Z,100694.91
2022-08-28T17:47:00.931Z,100691.53
2022-08-28T17:49:27.561Z,100702.44
2022-08-28T17:51:54.232Z,100704.34
2022-08-28T17:54:22.678Z,100697.94
2022-08-28T17:56:49.491Z,100702.09
2022-08-28T17:59:16.838Z,100693.41
2022-08-28T18:01:49.451Z,100685.59
2022-08-28T18:04:24.489Z,100692.28
2022-08-28T18:06:54.149Z,59527.72
2022-08-28T18:09:21.363Z,59527.72
2022-08-28T18:11:50.888Z,59527.72
2022-08-28T18:14:17.965Z,59527.72
2022-08-28T18:16:53.393Z,100695.22
2022-08-28T18:19:20.190Z,100696.06
2022-08-28T18:21:47.118Z,100703.00
2022-08-28T18:24:14.007Z,100709.66
2022-08-28T18:26:41.302Z,100693.94
2022-08-28T18:29:07.761Z,100709.88
2022-08-28T18:31:34.310Z,100714.03
2022-08-28T18:34:01.109Z,100708.97
2022-08-28T18:36:27.826Z,100719.81
2022-08-28T18:38:54.222Z,100707.22
2022-08-28T18:41:20.856Z,100706.34
2022-08-28T18:43:48.152Z,100708.25
2022-08-28T18:46:14.724Z,100715.47
2022-08-28T18:48:44.121Z,100710.41
2022-08-28T18:51:12.058Z,100694.72
2022-08-28T18:53:39.002Z,100693.81
2022-08-28T18:56:10.050Z,100711.56
2022-08-28T18:58:41.736Z,100705.41
2022-08-28T19:01:09.615Z,100708.44
2022-08-28T19:03:36.340Z,100709.28
2022-08-28T19:06:03.290Z,100714.47
2022-08-28T19:08:30.310Z,100716.09
2022-08-28T19:10:56.885Z,100706.03
2022-08-28T19:13:27.880Z,100716.25
2022-08-28T19:15:54.440Z,100701.69
2022-08-28T19:18:21.029Z,100685.72
2022-08-28T19:20:48.043Z,100673.03
2022-08-28T19:23:17.684Z,100686.38
2022-08-28T19:25:45.064Z,100688.25
2022-08-28T19:28:11.593Z,100690.69
2022-08-28T19:30:38.311Z,100688.66
2022-08-28T19:33:05.712Z,100684.72
2022-08-28T19:35:33.680Z,100669.81
2022-08-28T19:38:00.143Z,100666.03
2022-08-28T19:40:29.186Z,100654.72
2022-08-28T19:42:55.711Z,100652.22
2022-08-28T19:45:22.187Z,100642.53
2022-08-28T19:47:49.008Z,100655.25
2022-08-28T19:50:16.194Z,100662.09
2022-08-28T19:52:43.297Z,100652.34
2022-08-28T19:55:18.281Z,100667.00
2022-08-28T19:57:46.768Z,100653.72
2022-08-28T20:00:15.215Z,100641.50
2022-08-28T20:02:41.963Z,100666.81
2022-08-28T20:05:09.272Z,100677.91
2022-08-28T20:07:35.953Z,100659.06
2022-08-28T20:10:05.759Z,100660.22
2022-08-28T20:12:34.370Z,100663.41
2022-08-28T20:15:03.767Z,100653.47
2022-08-28T20:17:30.673Z,100661.59
2022-08-28T20:20:02.318Z,100657.88
2022-08-28T20:22:29.582Z,100657.94
2022-08-28T20:24:56.013Z,100656.63
2022-08-28T20:27:22.419Z,100658.81
2022-08-28T20:29:51.171Z,100661.34
2022-08-28T20:32:17.712Z,100681.72
2022-08-28T20:34:44.673Z,100666.53
2022-08-28T20:37:11.329Z,100686.28
2022-08-28T20:39:41.455Z,100672.13
2022-08-28T20:42:09.397Z,100675.50
2022-08-28T20:44:35.925Z,100662.00
2022-08-28T20:47:02.370Z,100669.97
2022-08-28T20:49:29.041Z,100678.38
2022-08-28T20:51:57.544Z,100689.09
2022-08-28T20:54:38.205Z,100689.09
2022-08-28T20:57:08.593Z,100678.66
2022-08-28T20:59:40.383Z,100688.66
2022-08-28T21:02:15.888Z,100696.97
2022-08-28T21:04:44.120Z,100698.03
2022-08-28T21:07:12.542Z,100701.53
2022-08-28T21:10:03.829Z,100723.81
2022-08-28T21:12:28.690Z,100715.50
2022-08-28T21:14:55.249Z,100731.63
2022-08-28T21:17:26.726Z,100746.03
2022-08-28T21:19:56.616Z,100736.44
2022-08-28T21:22:23.239Z,100749.31
2022-08-28T21:24:49.924Z,100757.16
2022-08-28T21:27:16.404Z,100743.41
2022-08-28T21:29:45.997Z,100758.94
2022-08-28T21:32:13.274Z,100768.31
2022-08-28T21:34:39.855Z,100765.38
2022-08-28T21:37:08.833Z,100780.38
2022-08-28T21:39:35.355Z,100772.06
2022-08-28T21:42:01.900Z,100745.47
2022-08-28T21:44:28.968Z,100734.41
2022-08-28T21:46:55.403Z,100739.22
2022-08-28T21:49:24.139Z,100734.63
2022-08-28T21:51:50.645Z,100738.13
2022-08-28T21:54:18.182Z,100738.00
2022-08-28T21:56:45.130Z,100724.66
2022-08-28T21:59:12.584Z,100732.81
2022-08-28T22:01:39.161Z,100741.38
2022-08-28T22:04:07.998Z,100738.72
2022-08-28T22:06:34.568Z,100751.44
2022-08-28T22:09:04.877Z,100757.47
2022-08-28T22:11:31.938Z,100743.44
2022-08-28T22:14:01.646Z,100732.94
2022-08-28T22:16:28.543Z,100751.13
2022-08-28T22:19:00.270Z,100760.13
2022-08-28T22:21:45.640Z,100766.75
2022-08-28T22:24:13.251Z,100765.31
2022-08-28T22:26:41.604Z,100744.50
2022-08-28T22:29:08.806Z,100750.03
2022-08-28T22:31:35.574Z,100756.09
2022-08-28T22:34:06.057Z,100764.50
2022-08-28T22:36:35.703Z,100754.06
2022-08-28T22:39:02.183Z,100746.19
2022-08-28T22:41:30.128Z,100745.88
2022-08-28T22:43:56.929Z,100735.53
2022-08-28T22:46:23.493Z,100749.06
2022-08-28T22:48:52.550Z,100755.44
2022-08-28T22:51:19.243Z,100752.13
2022-08-28T22:53:46.973Z,100747.28
2022-08-28T22:56:14.501Z,100746.28
2022-08-28T22:58:41.225Z,100763.31
2022-08-28T23:01:17.575Z,100755.25
2022-08-28T23:03:45.139Z,100773.44
2022-08-28T23:06:12.463Z,100782.34
2022-08-28T23:08:39.376Z,100784.97
2022-08-28T23:11:06.233Z,100787.25
2022-08-28T23:13:33.234Z,100803.31
2022-08-28T23:16:05.623Z,100805.00
2022-08-28T23:19:03.923Z,100800.28
2022-08-28T23:21:23.817Z,100793.72
2022-08-28T23:23:52.981Z,100809.81
2022-08-28T23:26:19.592Z,100813.03
2022-08-28T23:28:48.647Z,100795.88
2022-08-28T23:31:15.408Z,100783.13
2022-08-28T23:33:42.518Z,100785.50
2022-08-28T23:36:13.862Z,100801.84
2022-08-28T23:38:42.940Z,100785.72
2022-08-28T23:41:10.717Z,100765.72
2022-08-28T23:43:37.338Z,100796.25
2022-08-28T23:46:05.278Z,100803.72
2022-08-28T23:48:32.388Z,100782.75
2022-08-28T23:50:59.059Z,100784.09
2022-08-28T23:53:28.709Z,100786.66
2022-08-28T23:55:55.701Z,100776.66
2022-08-28T23:58:22.499Z,100766.84
